Time;durP1;ratioP1;P1;durP2;ratioP2;P2;SDS_P1;SDS_P2;PMS_P1;PMS_P2;Temp;Humidity;BMP_temperature;BMP_pressure;BME280_temperature;BME280_humidity;BME280_pressure;Samples;Min_cycle;Max_cycle;Signal;HPM_P1;HPM_P2
2023/03/18 00:00:44;;;;;;;8.07;4.93;;;13.60;99.90;;;;;;4955889;28;95607;-74
2023/03/18 00:03:11;;;;;;;4.90;3.95;;;13.60;99.90;;;;;;4972134;28;92491;-74
2023/03/18 00:05:38;;;;;;;5.05;4.10;;;13.60;99.90;;;;;;4955788;28;92577;-74
2023/03/18 00:08:05;;;;;;;6.07;4.07;;;13.60;99.90;;;;;;4971471;28;109637;-74
2023/03/18 00:10:34;;;;;;;7.60;4.65;;;13.60;99.90;;;;;;4971899;28;95662;-74
2023/03/18 00:13:03;;;;;;;8.18;4.35;;;13.50;99.90;;;;;;4956816;28;92530;-74
2023/03/18 00:15:30;;;;;;;8.25;5.15;;;13.50;99.90;;;;;;4957179;28;92447;-74
2023/03/18 00:17:58;;;;;;;8.18;4.93;;;13.50;99.90;;;;;;4970353;28;95894;-74
2023/03/18 00:20:37;;;;;;;6.20;4.28;;;13.50;99.90;;;;;;4956621;28;95356;-74
2023/03/18 00:23:07;;;;;;;9.70;5.18;;;13.50;99.90;;;;;;4957463;28;92435;-74
2023/03/18 00:25:35;;;;;;;6.90;5.00;;;13.50;99.90;;;;;;4956895;28;92471;-74
2023/03/18 00:28:05;;;;;;;6.28;4.38;;;13.50;99.90;;;;;;4954652;28;107901;-72
2023/03/18 00:30:33;;;;;;;5.45;4.95;;;13.50;99.90;;;;;;4971609;28;95492;-74
2023/03/18 00:33:00;;;;;;;6.22;4.68;;;13.40;99.90;;;;;;4971673;28;92670;-74
2023/03/18 00:35:29;;;;;;;5.30;4.35;;;13.40;99.90;;;;;;4955814;28;92665;-74
2023/03/18 00:38:02;;;;;;;5.68;4.13;;;13.40;99.90;;;;;;4956400;28;93291;-75
2023/03/18 00:40:41;;;;;;;6.82;4.80;;;13.40;99.90;;;;;;4971610;28;95435;-74
2023/03/18 00:43:11;;;;;;;9.23;5.30;;;13.40;99.90;;;;;;4955606;28;94862;-74
2023/03/18 00:45:39;;;;;;;7.20;4.57;;;13.40;99.90;;;;;;4971708;28;92531;-74
2023/03/18 00:48:07;;;;;;;7.03;5.30;;;13.40;99.90;;;;;;4955188;28;93349;-74
2023/03/18 00:50:35;;;;;;;7.68;4.78;;;13.40;99.90;;;;;;4971567;28;95640;-74
2023/03/18 00:53:03;;;;;;;8.35;5.00;;;13.40;99.90;;;;;;4971218;28;92515;-74
2023/03/18 00:55:30;;;;;;;6.88;4.90;;;13.40;99.90;;;;;;4939211;28;92657;-74
2023/03/18 00:57:57;;;;;;;8.45;4.72;;;13.40;99.90;;;;;;4970875;28;95693;-74
2023/03/18 01:00:25;;;;;;;7.38;4.78;;;13.40;99.90;;;;;;4971732;28;95335;-74
2023/03/18 01:02:53;;;;;;;6.75;5.00;;;13.40;99.90;;;;;;4938876;28;92513;-74
2023/03/18 01:05:20;;;;;;;6.55;5.00;;;13.30;99.90;;;;;;4971504;28;92534;-74
2023/03/18 01:07:48;;;;;;;8.20;5.45;;;13.20;99.90;;;;;;4969899;28;98272;-74
2023/03/18 01:10:15;;;;;;;6.47;5.20;;;13.20;99.90;;;;;;4937825;28;97702;-74
2023/03/18 01:12:47;;;;;;;7.53;5.07;;;13.10;99.90;;;;;;4971196;28;92532;-74
2023/03/18 01:15:17;;;;;;;9.02;5.38;;;13.00;99.90;;;;;;4971376;28;92514;-74
2023/03/18 01:17:45;;;;;;;6.93;4.82;;;13.00;99.90;;;;;;4971093;28;95721;-74
2023/03/18 01:20:15;;;;;;;8.98;5.20;;;12.90;99.90;;;;;;4955085;28;95788;-74
2023/03/18 01:22:45;;;;;;;7.80;5.75;;;12.90;99.90;;;;;;4971189;28;92521;-74
2023/03/18 01:25:15;;;;;;;6.15;5.05;;;12.80;99.90;;;;;;4970403;28;91799;-74
2023/03/18 01:27:44;;;;;;;8.55;5.22;;;12.80;99.90;;;;;;4954464;28;94318;-74
2023/03/18 01:30:12;;;;;;;5.55;4.97;;;12.80;99.90;;;;;;4970902;28;95511;-74
2023/03/18 01:32:42;;;;;;;7.75;5.60;;;12.70;99.90;;;;;;4969971;28;94913;-74
2023/03/18 01:35:11;;;;;;;7.15;5.32;;;12.70;99.90;;;;;;4970903;28;92551;-74
2023/03/18 01:37:42;;;;;;;8.30;6.13;;;12.60;99.90;;;;;;4954838;28;95586;-74
2023/03/18 01:40:13;;;;;;;8.18;5.88;;;12.50;99.90;;;;;;4954387;28;95195;-74
2023/03/18 01:42:42;;;;;;;7.50;5.82;;;12.40;99.90;;;;;;4970998;28;92920;-74
2023/03/18 01:45:15;;;;;;;10.77;6.10;;;12.30;99.90;;;;;;4970868;28;92595;-74
2023/03/18 01:47:43;;;;;;;7.82;6.07;;;12.30;99.90;;;;;;4954455;28;96318;-74
2023/03/18 01:50:19;;;;;;;8.02;6.00;;;12.20;99.90;;;;;;4954579;28;93981;-74
2023/03/18 01:52:58;;;;;;;7.80;6.60;;;12.10;99.90;;;;;;4956227;28;92504;-74
2023/03/18 01:55:29;;;;;;;9.07;5.95;;;12.10;99.90;;;;;;4971304;28;92409;-74
2023/03/18 01:57:57;;;;;;;6.80;6.13;;;12.00;99.90;;;;;;4969306;28;98005;-74
2023/03/18 02:00:24;;;;;;;7.95;6.10;;;11.90;99.90;;;;;;4970426;28;97459;-74
2023/03/18 02:02:53;;;;;;;11.10;7.60;;;11.80;99.90;;;;;;4970565;28;93361;-74
2023/03/18 02:05:24;;;;;;;7.80;6.72;;;11.80;99.90;;;;;;4955914;28;92835;-74
2023/03/18 02:07:54;;;;;;;9.52;6.57;;;11.70;99.90;;;;;;4970403;28;95690;-74
2023/03/18 02:10:27;;;;;;;8.52;7.50;;;11.70;99.90;;;;;;4970189;28;92860;-74
2023/03/18 02:13:05;;;;;;;11.40;7.18;;;11.70;99.90;;;;;;4970482;28;92570;-74
2023/03/18 02:16:02;;;;;;;11.43;7.70;;;11.70;99.90;;;;;;4954459;28;91711;-74
2023/03/18 02:18:37;;;;;;;11.32;8.80;;;11.60;99.90;;;;;;4946542;28;95707;-74
2023/03/18 02:21:26;;;;;;;9.52;8.52;;;11.50;99.90;;;;;;4955272;28;93095;-74
2023/03/18 02:24:21;;;;;;;13.60;9.05;;;11.60;99.90;;;;;;4953115;28;94990;-74
2023/03/18 02:27:14;;;;;;;12.32;10.15;;;11.50;99.90;;;;;;4970358;28;92550;-74
2023/03/18 02:29:43;;;;;;;14.18;10.48;;;11.50;99.90;;;;;;4950730;28;95841;-74
2023/03/18 02:32:16;;;;;;;16.30;11.73;;;11.40;99.90;;;;;;4953266;28;95229;-74
2023/03/18 02:34:44;;;;;;;13.60;11.27;;;11.40;99.90;;;;;;4955052;28;92443;-74
2023/03/18 02:37:11;;;;;;;15.90;13.23;;;11.40;99.90;;;;;;4955956;28;92554;-74
2023/03/18 02:39:40;;;;;;;18.08;13.80;;;11.40;99.90;;;;;;4956384;28;95347;-74
2023/03/18 02:42:12;;;;;;;17.85;12.95;;;11.40;99.90;;;;;;4956699;28;95135;-74
2023/03/18 02:44:46;;;;;;;18.10;14.27;;;11.40;99.90;;;;;;4972219;28;93069;-74
2023/03/18 02:47:31;;;;;;;18.50;14.90;;;11.50;99.90;;;;;;4956725;28;92558;-74
2023/03/18 02:49:58;;;;;;;16.10;13.85;;;11.40;99.90;;;;;;4971561;28;98143;-74
2023/03/18 02:52:26;;;;;;;17.80;14.18;;;11.40;99.90;;;;;;4956317;28;97832;-74
2023/03/18 02:54:57;;;;;;;17.02;14.18;;;11.40;99.90;;;;;;4972890;28;92569;-74
2023/03/18 02:57:26;;;;;;;18.05;13.98;;;11.40;99.90;;;;;;4956288;28;92457;-74
2023/03/18 02:59:54;;;;;;;16.63;13.50;;;11.40;99.90;;;;;;4972870;28;95443;-74
2023/03/18 03:02:21;;;;;;;15.60;13.70;;;11.40;99.90;;;;;;4955687;28;95305;-74
2023/03/18 03:04:48;;;;;;;21.45;14.35;;;11.40;99.90;;;;;;4957779;28;92412;-74
2023/03/18 03:07:17;;;;;;;14.90;13.27;;;11.40;99.90;;;;;;4940752;28;91742;-74
2023/03/18 03:09:49;;;;;;;14.13;12.05;;;11.40;99.90;;;;;;4940169;28;95588;-74
2023/03/18 03:12:17;;;;;;;14.20;11.35;;;11.40;99.90;;;;;;4956150;28;95531;-74
2023/03/18 03:14:50;;;;;;;13.15;11.48;;;11.50;99.90;;;;;;4971454;28;94870;-74
2023/03/18 03:17:17;;;;;;;11.00;9.90;;;11.50;99.90;;;;;;4956192;28;92966;-74
2023/03/18 03:19:44;;;;;;;13.88;10.98;;;11.50;99.90;;;;;;4940324;28;95809;-74
2023/03/18 03:22:13;;;;;;;12.13;9.85;;;11.50;99.90;;;;;;4971383;28;95706;-74
2023/03/18 03:24:40;;;;;;;17.60;11.65;;;11.50;99.90;;;;;;4957884;28;92561;-74
2023/03/18 03:27:07;;;;;;;19.27;11.90;;;11.50;99.90;;;;;;4955560;28;93030;-74
2023/03/18 03:29:34;;;;;;;13.05;11.55;;;11.60;99.90;;;;;;4957141;28;93196;-74
2023/03/18 03:32:01;;;;;;;18.05;11.45;;;11.60;99.90;;;;;;4939902;28;95633;-74
2023/03/18 03:34:28;;;;;;;16.80;12.35;;;11.50;99.90;;;;;;4955859;28;92425;-74
2023/03/18 03:36:55;;;;;;;14.75;12.07;;;11.50;99.90;;;;;;4940038;28;92923;-74
2023/03/18 03:39:24;;;;;;;16.77;12.00;;;11.50;99.90;;;;;;4954223;28;97541;-74
2023/03/18 03:41:51;;;;;;;16.88;11.98;;;11.60;99.90;;;;;;4939571;28;98352;-74
2023/03/18 03:44:19;;;;;;;13.15;10.85;;;11.50;99.90;;;;;;4955480;28;92465;-74
2023/03/18 03:46:48;;;;;;;14.75;10.65;;;11.50;99.90;;;;;;4939830;28;92976;-74
2023/03/18 03:49:15;;;;;;;14.27;10.07;;;11.50;99.90;;;;;;4938729;28;95729;-74
2023/03/18 03:51:42;;;;;;;10.70;9.60;;;11.40;99.90;;;;;;4971898;28;95545;-74
2023/03/18 03:54:12;;;;;;;11.85;10.05;;;11.40;99.90;;;;;;4955956;28;92558;-74
2023/03/18 03:56:39;;;;;;;13.43;10.20;;;11.30;99.90;;;;;;4955954;28;91852;-74
2023/03/18 03:59:08;;;;;;;11.10;9.95;;;11.30;99.90;;;;;;4956735;28;93286;-74
2023/03/18 04:01:55;;;;;;;12.18;10.45;;;11.20;99.90;;;;;;4957144;28;93672;-74
2023/03/18 04:04:23;;;;;;;11.98;9.85;;;11.10;99.90;;;;;;4970391;28;94922;-74
2023/03/18 04:06:50;;;;;;;14.43;10.32;;;11.00;99.90;;;;;;4956021;28;92502;-74
2023/03/18 04:09:17;;;;;;;13.48;9.55;;;11.00;99.90;;;;;;4956222;28;95228;-74
2023/03/18 04:11:44;;;;;;;12.70;9.80;;;10.90;99.90;;;;;;4957122;28;92826;-74
2023/03/18 04:14:11;;;;;;;11.65;9.95;;;10.90;99.90;;;;;;4972094;28;92932;-74
2023/03/18 04:16:39;;;;;;;12.70;9.25;;;10.80;99.90;;;;;;4939728;28;92788;-74
2023/03/18 04:19:08;;;;;;;13.63;10.38;;;10.80;99.90;;;;;;4972047;28;95362;-74
2023/03/18 04:21:36;;;;;;;11.45;10.10;;;10.70;99.90;;;;;;4955435;28;95609;-74
2023/03/18 04:24:03;;;;;;;13.93;10.20;;;10.60;99.90;;;;;;4971495;28;92638;-72
2023/03/18 04:26:31;;;;;;;14.07;10.98;;;10.60;99.90;;;;;;4954779;28;92477;-72
2023/03/18 04:29:02;;;;;;;14.05;10.80;;;10.60;99.90;;;;;;4969888;28;97515;-73
2023/03/18 04:31:30;;;;;;;13.48;10.90;;;10.50;99.90;;;;;;4955004;28;98112;-73
2023/03/18 04:33:58;;;;;;;17.30;12.23;;;10.50;99.90;;;;;;4971754;28;92900;-73
2023/03/18 04:36:27;;;;;;;16.13;12.77;;;10.50;99.90;;;;;;4955021;28;92520;-73
2023/03/18 04:38:55;;;;;;;19.35;12.93;;;10.50;99.90;;;;;;4970981;28;95893;-73
2023/03/18 04:41:23;;;;;;;16.63;13.38;;;10.60;99.90;;;;;;4954800;28;94401;-73
2023/03/18 04:43:52;;;;;;;15.90;13.45;;;10.70;99.90;;;;;;4954909;28;92480;-73
2023/03/18 04:46:20;;;;;;;16.67;12.35;;;10.70;99.90;;;;;;4923003;28;91761;-73
2023/03/18 04:48:48;;;;;;;17.33;13.02;;;10.80;99.90;;;;;;4954626;28;94231;-73
2023/03/18 04:51:15;;;;;;;15.55;12.30;;;10.80;99.90;;;;;;4954324;28;95640;-73
2023/03/18 04:53:42;;;;;;;17.73;12.50;;;10.80;99.90;;;;;;4954984;28;95031;-73
2023/03/18 04:56:11;;;;;;;18.15;13.52;;;10.80;99.90;;;;;;4954938;28;92863;-73
2023/03/18 04:58:46;;;;;;;20.10;13.60;;;10.80;99.90;;;;;;4954085;28;95371;-73
2023/03/18 05:01:17;;;;;;;16.40;13.77;;;10.90;99.90;;;;;;4969590;28;95683;-73
2023/03/18 05:03:45;;;;;;;19.15;14.10;;;10.90;99.90;;;;;;4954686;28;92530;-73
2023/03/18 05:06:26;;;;;;;14.85;13.32;;;10.90;99.90;;;;;;4954518;28;92555;-73
2023/03/18 05:08:59;;;;;;;16.63;13.23;;;11.00;99.90;;;;;;4954197;28;95490;-73
2023/03/18 05:11:31;;;;;;;20.33;14.75;;;11.00;99.90;;;;;;4970663;28;95132;-73
2023/03/18 05:14:06;;;;;;;17.95;14.38;;;11.00;99.90;;;;;;4954392;28;92527;-73
2023/03/18 05:16:39;;;;;;;15.57;13.93;;;11.10;99.90;;;;;;4938890;28;92484;-73
2023/03/18 05:19:08;;;;;;;19.13;15.23;;;11.10;99.90;;;;;;4954462;28;95426;-73
2023/03/18 05:21:40;;;;;;;18.98;14.57;;;11.10;99.90;;;;;;4970402;28;97743;-73
2023/03/18 05:24:08;;;;;;;20.27;15.77;;;11.10;99.90;;;;;;4954325;28;92486;-73
2023/03/18 05:26:38;;;;;;;18.00;15.95;;;11.10;99.90;;;;;;4969921;28;93130;-73
2023/03/18 05:29:07;;;;;;;20.95;15.73;;;11.20;99.90;;;;;;4954099;28;94690;-73
2023/03/18 05:31:42;;;;;;;19.55;15.65;;;11.20;99.90;;;;;;4970108;28;95059;-73
2023/03/18 05:34:09;;;;;;;21.05;16.05;;;11.20;99.90;;;;;;4970515;28;92429;-73
2023/03/18 05:36:37;;;;;;;21.88;17.08;;;11.20;99.90;;;;;;4954217;28;92468;-73
2023/03/18 05:39:07;;;;;;;20.58;16.23;;;11.20;99.90;;;;;;4953819;28;96158;-73
2023/03/18 05:41:34;;;;;;;23.38;16.88;;;11.20;99.90;;;;;;4970094;28;95484;-73
2023/03/18 05:44:02;;;;;;;21.45;17.33;;;11.20;99.90;;;;;;4953002;28;94812;-73
2023/03/18 05:46:32;;;;;;;21.65;17.10;;;11.30;99.90;;;;;;4970198;28;92572;-73
2023/03/18 05:49:22;;;;;;;20.05;15.63;;;11.20;99.90;;;;;;4952339;28;94091;-73
2023/03/18 05:52:09;;;;;;;20.83;16.75;;;11.20;99.90;;;;;;4953878;28;95248;-73
2023/03/18 05:54:41;;;;;;;21.42;15.93;;;11.20;99.90;;;;;;4937991;28;92481;-73
2023/03/18 05:57:09;;;;;;;19.52;15.07;;;11.20;99.90;;;;;;4953934;28;92606;-73
2023/03/18 05:59:36;;;;;;;20.85;14.52;;;11.30;99.90;;;;;;4953375;28;95880;-73
2023/03/18 06:02:03;;;;;;;17.65;14.30;;;11.30;99.90;;;;;;4953900;28;95046;-73
2023/03/18 06:04:31;;;;;;;19.50;14.57;;;11.30;99.90;;;;;;4953537;28;92918;-73
2023/03/18 06:06:58;;;;;;;16.90;13.43;;;11.30;99.90;;;;;;4953753;28;92457;-73
2023/03/18 06:09:25;;;;;;;15.55;13.00;;;11.40;99.90;;;;;;4968376;28;97956;-73
2023/03/18 06:11:53;;;;;;;17.60;13.27;;;11.40;99.90;;;;;;4972354;28;95701;-73
2023/03/18 06:14:20;;;;;;;19.38;14.02;;;11.50;99.90;;;;;;4940977;28;92436;-73
2023/03/18 06:16:47;;;;;;;17.90;13.48;;;11.50;99.90;;;;;;4956469;28;92492;-73
2023/03/18 06:19:14;;;;;;;16.83;13.25;;;11.50;99.90;;;;;;4958232;28;93005;-73
2023/03/18 06:21:41;;;;;;;16.35;13.55;;;11.50;99.90;;;;;;4972957;28;95568;-73
2023/03/18 06:24:08;;;;;;;16.65;13.88;;;11.60;99.90;;;;;;4957172;28;92579;-73
2023/03/18 06:26:37;;;;;;;17.83;13.30;;;11.60;99.90;;;;;;4973462;28;92294;-73
2023/03/18 06:29:05;;;;;;;16.25;13.13;;;11.60;99.90;;;;;;4956710;28;95518;-73
2023/03/18 06:31:33;;;;;;;15.50;13.80;;;11.70;99.90;;;;;;4972597;28;94229;-73
2023/03/18 06:34:03;;;;;;;15.35;13.73;;;11.70;99.90;;;;;;4955618;28;94869;-73
2023/03/18 06:36:33;;;;;;;17.17;13.73;;;11.80;99.90;;;;;;4972720;28;92565;-73
2023/03/18 06:39:03;;;;;;;17.42;13.43;;;11.80;99.90;;;;;;4956230;28;94306;-73
2023/03/18 06:41:30;;;;;;;16.90;12.82;;;11.90;99.90;;;;;;4972612;28;95242;-73
2023/03/18 06:44:16;;;;;;;13.77;11.95;;;12.00;99.90;;;;;;4957118;28;92486;-73
2023/03/18 06:46:44;;;;;;;17.27;13.45;;;12.00;99.90;;;;;;4972873;28;92512;-73
2023/03/18 06:49:12;;;;;;;15.20;13.05;;;12.10;99.90;;;;;;4956168;28;95525;-73
2023/03/18 06:51:46;;;;;;;17.30;13.93;;;12.20;99.90;;;;;;4956380;28;95162;-73
2023/03/18 06:54:15;;;;;;;16.20;13.35;;;12.20;99.90;;;;;;4956558;28;93110;-73
2023/03/18 06:56:43;;;;;;;15.15;12.77;;;12.20;99.90;;;;;;4955772;28;92533;-73
2023/03/18 06:59:16;;;;;;;15.70;12.77;;;12.30;99.90;;;;;;4971489;28;98220;-73
2023/03/18 07:01:43;;;;;;;15.80;13.88;;;12.40;99.90;;;;;;4955796;28;96332;-73
2023/03/18 07:04:11;;;;;;;16.08;13.32;;;12.50;99.90;;;;;;4972645;28;92422;-73
2023/03/18 07:06:38;;;;;;;14.00;12.43;;;12.60;99.90;;;;;;4940188;28;92459;-73
2023/03/18 07:09:05;;;;;;;18.88;14.25;;;12.60;99.90;;;;;;4955883;28;96085;-73
2023/03/18 07:11:32;;;;;;;14.57;12.98;;;12.70;99.90;;;;;;4972444;28;95106;-73
2023/03/18 07:14:06;;;;;;;17.38;13.57;;;12.70;99.90;;;;;;4972426;28;92583;-73
2023/03/18 07:16:35;;;;;;;19.60;13.80;;;12.80;99.90;;;;;;4956498;28;91870;-73
2023/03/18 07:19:03;;;;;;;15.57;12.80;;;12.80;99.90;;;;;;4955948;28;95566;-73
2023/03/18 07:21:30;;;;;;;15.45;12.75;;;12.90;99.90;;;;;;4971952;28;95417;-73
2023/03/18 07:23:57;;;;;;;15.25;12.63;;;12.90;99.90;;;;;;4953814;28;95007;-73
2023/03/18 07:26:24;;;;;;;14.40;12.80;;;13.00;99.90;;;;;;4956025;28;92475;-73
2023/03/18 07:28:51;;;;;;;13.30;11.93;;;13.10;99.90;;;;;;4955797;28;92930;-73
2023/03/18 07:31:18;;;;;;;15.30;12.05;;;13.30;99.90;;;;;;4939503;28;95799;-73
2023/03/18 07:33:45;;;;;;;15.43;12.63;;;13.50;99.90;;;;;;4954955;28;92500;-73
2023/03/18 07:36:13;;;;;;;16.27;12.93;;;13.70;99.90;;;;;;4971855;28;92547;-73
2023/03/18 07:38:40;;;;;;;15.80;13.13;;;13.90;99.90;;;;;;4957028;28;93282;-73
2023/03/18 07:41:07;;;;;;;17.17;13.23;;;14.00;99.90;;;;;;4957727;28;93020;-73
2023/03/18 07:43:35;;;;;;;17.20;12.57;;;14.10;99.90;;;;;;4957506;28;92491;-73
2023/03/18 07:46:03;;;;;;;14.55;13.05;;;14.20;99.90;;;;;;4956946;28;92469;-73
2023/03/18 07:48:30;;;;;;;17.02;13.13;;;14.10;99.90;;;;;;4938172;28;98341;-73
2023/03/18 07:50:58;;;;;;;15.45;13.02;;;14.10;99.90;;;;;;4956525;28;95518;-73
2023/03/18 07:53:26;;;;;;;14.70;11.68;;;14.10;99.90;;;;;;4955906;28;92807;-73
2023/03/18 07:55:54;;;;;;;15.35;13.07;;;14.00;99.90;;;;;;4956847;28;92417;-73
2023/03/18 07:58:21;;;;;;;14.45;12.57;;;14.00;99.90;;;;;;4971971;28;96218;-73
2023/03/18 08:00:48;;;;;;;15.63;12.30;;;14.00;99.90;;;;;;4955441;28;93076;-73
2023/03/18 08:03:15;;;;;;;15.38;13.27;;;14.00;99.90;;;;;;4971336;28;99719;-73
2023/03/18 08:05:42;;;;;;;14.05;11.98;;;14.00;99.90;;;;;;4956952;28;91702;-73
2023/03/18 08:08:09;;;;;;;14.73;12.40;;;14.00;99.90;;;;;;4955272;28;95931;-73
2023/03/18 08:10:37;;;;;;;16.42;13.02;;;14.00;99.90;;;;;;4954745;28;95646;-73
2023/03/18 08:13:04;;;;;;;15.98;12.05;;;14.00;99.90;;;;;;4953009;28;95252;-73
2023/03/18 08:15:30;;;;;;;14.05;12.50;;;14.00;99.90;;;;;;4956878;28;93055;-74
2023/03/18 08:17:58;;;;;;;15.27;12.63;;;14.00;99.90;;;;;;4954874;28;93171;-74
2023/03/18 08:20:25;;;;;;;14.50;12.60;;;14.00;99.90;;;;;;4956498;28;92930;-74
2023/03/18 08:22:53;;;;;;;14.95;13.35;;;14.00;99.90;;;;;;4956321;28;92829;-74
2023/03/18 08:25:21;;;;;;;15.13;13.38;;;14.00;99.90;;;;;;4956803;28;92396;-74
2023/03/18 08:27:49;;;;;;;16.20;13.23;;;14.00;99.90;;;;;;4954739;28;95887;-74
2023/03/18 08:30:17;;;;;;;15.60;13.52;;;14.10;99.90;;;;;;4956165;28;100595;-74
2023/03/18 08:32:45;;;;;;;16.30;13.13;;;14.20;99.90;;;;;;4971436;28;92445;-74
2023/03/18 08:35:12;;;;;;;15.85;13.57;;;14.30;99.90;;;;;;4954902;28;92558;-74
2023/03/18 08:37:39;;;;;;;20.88;14.00;;;14.30;99.90;;;;;;4953511;28;96788;-74
2023/03/18 08:40:08;;;;;;;14.10;12.45;;;14.30;99.90;;;;;;4938184;28;98435;-74
2023/03/18 08:42:35;;;;;;;19.50;14.50;;;14.30;99.90;;;;;;4956218;28;92422;-73
2023/03/18 08:45:03;;;;;;;20.95;14.38;;;14.30;99.90;;;;;;4955665;28;92471;-74
2023/03/18 08:47:31;;;;;;;17.95;15.10;;;14.30;99.90;;;;;;4938400;28;106974;-74
2023/03/18 08:49:58;;;;;;;17.35;15.05;;;14.30;99.90;;;;;;4938268;28;95515;-74
2023/03/18 08:52:25;;;;;;;19.05;15.70;;;14.30;99.90;;;;;;4954770;28;92527;-73
2023/03/18 08:54:52;;;;;;;17.70;14.52;;;14.30;99.90;;;;;;4955018;28;91755;-74
2023/03/18 08:57:19;;;;;;;17.65;15.20;;;14.40;99.90;;;;;;4956038;28;93251;-73
2023/03/18 08:59:46;;;;;;;22.42;15.40;;;14.40;99.90;;;;;;4954055;28;108484;-74
2023/03/18 09:02:17;;;;;;;18.25;14.88;;;14.50;99.90;;;;;;4954549;28;94740;-74
2023/03/18 09:04:45;;;;;;;21.08;15.88;;;14.60;99.90;;;;;;4954571;28;92559;-73
2023/03/18 09:07:12;;;;;;;18.73;14.77;;;14.60;99.90;;;;;;4955737;28;93254;-73
2023/03/18 09:09:39;;;;;;;19.98;15.15;;;14.70;99.90;;;;;;4955214;28;93035;-74
2023/03/18 09:12:11;;;;;;;21.60;17.30;;;14.80;99.90;;;;;;4954494;28;92568;-74
2023/03/18 09:14:39;;;;;;;21.15;17.42;;;14.90;99.90;;;;;;4954526;28;92516;-74
2023/03/18 09:17:06;;;;;;;22.27;17.58;;;15.10;99.90;;;;;;4955489;28;93323;-74
2023/03/18 09:19:34;;;;;;;21.70;18.25;;;15.40;99.90;;;;;;4954755;28;93200;-74
2023/03/18 09:22:01;;;;;;;20.00;17.65;;;15.70;99.90;;;;;;4955714;28;92863;-73
2023/03/18 09:24:28;;;;;;;20.75;17.55;;;15.90;99.90;;;;;;4955700;28;92351;-74
2023/03/18 09:26:55;;;;;;;21.70;18.00;;;16.20;99.90;;;;;;4936343;28;98148;-74
2023/03/18 09:29:22;;;;;;;21.02;17.90;;;16.30;99.90;;;;;;4970506;28;95444;-74
2023/03/18 09:31:49;;;;;;;22.38;18.15;;;16.50;99.90;;;;;;4954163;28;93038;-74
2023/03/18 09:34:16;;;;;;;22.10;18.65;;;16.70;99.90;;;;;;4955032;28;98286;-74
2023/03/18 09:36:49;;;;;;;20.77;18.20;;;16.70;99.90;;;;;;4955239;28;93402;-74
2023/03/18 09:39:18;;;;;;;22.27;19.63;;;16.80;99.90;;;;;;4954183;28;93093;-74
2023/03/18 09:41:59;;;;;;;23.63;19.67;;;16.90;99.90;;;;;;4953860;28;92458;-74
2023/03/18 09:44:33;;;;;;;20.75;18.55;;;17.10;99.90;;;;;;4954255;28;91719;-74
2023/03/18 09:47:17;;;;;;;;;;;17.40;99.90;;;;;;4956809;28;95959;-74
2023/03/18 09:50:14;;;;;;;24.83;20.65;;;17.30;99.90;;;;;;4960465;28;92574;-74
2023/03/18 09:53:09;;;;;;;25.45;21.35;;;17.30;99.90;;;;;;4958194;28;94842;-74
2023/03/18 09:55:45;;;;;;;24.20;19.63;;;17.40;99.90;;;;;;4969273;28;92456;-74
2023/03/18 09:58:40;;;;;;;23.20;20.55;;;17.40;99.90;;;;;;4958386;28;93305;-74
2023/03/18 10:01:09;;;;;;;26.33;19.80;;;17.60;99.90;;;;;;4958563;28;92968;-74
2023/03/18 10:04:11;;;;;;;24.65;20.30;;;17.60;99.90;;;;;;4958564;28;92488;-74
2023/03/18 10:06:41;;;;;;;24.52;21.45;;;17.90;99.90;;;;;;4956074;28;92705;-74
2023/03/18 10:09:14;;;;;;;22.13;19.95;;;17.90;99.90;;;;;;4958449;28;92527;-74
2023/03/18 10:11:46;;;;;;;21.75;19.35;;;17.90;99.90;;;;;;4958814;28;93176;-74
2023/03/18 10:14:25;;;;;;;25.52;20.40;;;17.80;99.90;;;;;;4973459;28;92456;-74
2023/03/18 10:16:52;;;;;;;21.45;19.27;;;18.00;99.90;;;;;;4958484;28;92516;-74
2023/03/18 10:19:19;;;;;;;23.70;20.27;;;18.00;99.90;;;;;;4972226;28;95685;-74
2023/03/18 10:22:20;;;;;;;22.52;20.13;;;18.10;99.90;;;;;;4973209;28;98026;-74
2023/03/18 10:24:58;;;;;;;24.85;20.67;;;18.40;99.90;;;;;;4972978;28;92624;-74
2023/03/18 10:27:42;;;;;;;26.73;21.35;;;18.40;99.90;;;;;;4973150;28;92644;-74
2023/03/18 10:30:35;;;;;;;23.42;19.65;;;18.40;99.90;;;;;;4956243;28;95767;-74
2023/03/18 10:33:12;;;;;;;22.80;16.77;;;18.50;99.90;;;;;;4956784;28;95995;-74
2023/03/18 10:36:03;;;;;;;20.60;17.95;;;18.40;99.90;;;;;;4973204;28;93015;-74
2023/03/18 10:38:38;;;;;;;18.90;17.00;;;18.40;99.90;;;;;;4957316;28;91687;-74
2023/03/18 10:41:27;;;;;;;18.02;15.73;;;18.20;99.90;;;;;;4956333;28;95814;-74
2023/03/18 10:43:56;;;;;;;16.83;15.23;;;18.20;99.90;;;;;;4957974;28;93123;-74
2023/03/18 10:46:25;;;;;;;17.00;14.75;;;18.10;99.90;;;;;;4956576;28;94778;-74
2023/03/18 10:49:06;;;;;;;17.60;15.50;;;18.20;99.90;;;;;;4956767;28;92489;-74
2023/03/18 10:51:37;;;;;;;19.40;17.50;;;18.40;99.90;;;;;;4972775;28;95784;-74
2023/03/18 10:54:30;;;;;;;19.90;16.08;;;18.70;99.90;;;;;;4957892;28;93261;-74
2023/03/18 10:56:57;;;;;;;17.95;15.95;;;18.80;99.90;;;;;;4957934;28;92461;-74
2023/03/18 10:59:27;;;;;;;18.80;14.93;;;18.70;99.90;;;;;;4957597;28;92413;-74
2023/03/18 11:02:00;;;;;;;17.55;15.73;;;18.70;99.90;;;;;;4972707;28;93385;-74
2023/03/18 11:04:35;;;;;;;20.90;16.80;;;18.90;99.90;;;;;;4956628;28;94281;-74
2023/03/18 11:07:06;;;;;;;19.23;17.20;;;19.00;99.90;;;;;;4972789;28;92461;-74
2023/03/18 11:09:36;;;;;;;18.55;15.95;;;19.10;99.90;;;;;;4956636;28;92517;-74
2023/03/18 11:12:05;;;;;;;17.77;15.98;;;19.10;99.90;;;;;;4971167;28;96579;-74
2023/03/18 11:14:36;;;;;;;17.95;15.88;;;19.00;99.90;;;;;;4957062;28;99319;-74
2023/03/18 11:17:32;;;;;;;18.75;15.95;;;18.90;99.90;;;;;;4957769;28;92391;-74
2023/03/18 11:20:24;;;;;;;18.98;16.15;;;18.90;99.90;;;;;;4972563;28;92570;-75
2023/03/18 11:22:54;;;;;;;17.75;15.77;;;18.70;99.90;;;;;;4956248;28;96030;-75
2023/03/18 11:25:25;;;;;;;20.98;17.35;;;18.40;99.90;;;;;;4957274;28;93731;-74
2023/03/18 11:28:01;;;;;;;21.65;17.88;;;18.30;99.90;;;;;;4957528;28;92459;-73
2023/03/18 11:30:33;;;;;;;23.85;18.85;;;18.20;99.90;;;;;;4972121;28;91672;-73
2023/03/18 11:33:10;;;;;;;22.57;17.57;;;18.00;99.90;;;;;;4956205;28;93324;-73
2023/03/18 11:35:51;;;;;;;20.13;16.65;;;17.80;99.90;;;;;;4957712;28;92804;-73
2023/03/18 11:38:29;;;;;;;20.02;16.92;;;17.70;99.90;;;;;;4970882;28;95318;-74
2023/03/18 11:41:23;;;;;;;20.75;17.30;;;17.60;99.90;;;;;;4955928;28;92526;-73
2023/03/18 11:43:58;;;;;;;21.08;16.27;;;17.60;99.90;;;;;;4972036;28;96042;-74
2023/03/18 11:46:38;;;;;;;15.90;14.35;;;17.50;99.90;;;;;;4971411;28;96952;-74
2023/03/18 11:49:12;;;;;;;14.70;13.30;;;17.70;99.90;;;;;;4957312;28;92492;-74
2023/03/18 11:51:57;;;;;;;13.50;12.15;;;17.70;99.90;;;;;;4956345;28;92512;-74
2023/03/18 11:54:46;;;;;;;13.10;11.80;;;17.80;99.90;;;;;;4971799;28;93252;-74
2023/03/18 11:57:51;;;;;;;12.18;10.88;;;17.80;99.90;;;;;;4957138;28;93016;-74
2023/03/18 12:00:32;;;;;;;11.02;10.02;;;17.80;99.90;;;;;;4971734;28;92541;-74
2023/03/18 12:03:47;;;;;;;11.77;10.30;;;17.70;99.90;;;;;;4957049;28;92387;-74
2023/03/18 12:06:31;;;;;;;11.32;10.15;;;17.70;99.90;;;;;;4950719;28;95482;-74
2023/03/18 12:09:16;;;;;;;9.93;8.95;;;17.60;99.90;;;;;;4956035;28;95170;-74
2023/03/18 12:12:05;;;;;;;10.50;8.63;;;17.70;99.90;;;;;;4957444;28;92754;-73
2023/03/18 12:14:42;;;;;;;9.25;8.35;;;17.90;99.90;;;;;;4972127;28;92539;-74
2023/03/18 12:17:27;;;;;;;9.35;8.48;;;18.00;99.90;;;;;;4956079;28;93243;-74
2023/03/18 12:19:57;;;;;;;9.45;8.55;;;18.20;99.90;;;;;;4956973;28;92529;-74
2023/03/18 12:22:59;;;;;;;8.23;7.43;;;18.30;99.90;;;;;;4971979;28;92558;-74
2023/03/18 12:25:54;;;;;;;7.60;6.85;;;18.40;99.90;;;;;;4972306;28;91775;-74
2023/03/18 12:28:41;;;;;;;8.13;7.32;;;18.40;99.90;;;;;;4945623;28;95926;-74
2023/03/18 12:31:17;;;;;;;7.88;7.05;;;18.40;99.90;;;;;;4955486;28;95409;-74
2023/03/18 12:33:55;;;;;;;7.03;6.22;;;18.40;99.90;;;;;;4955765;28;94744;-74
2023/03/18 12:36:43;;;;;;;6.95;6.25;;;18.50;99.90;;;;;;4956692;28;92398;-74
2023/03/18 12:39:44;;;;;;;6.78;6.18;;;18.50;99.90;;;;;;4956892;28;93112;-73
2023/03/18 12:42:29;;;;;;;6.57;5.95;;;18.60;99.90;;;;;;4956638;28;93097;-74
2023/03/18 12:45:02;;;;;;;6.60;5.75;;;18.60;99.90;;;;;;4956915;28;92453;-73
2023/03/18 12:47:45;;;;;;;6.55;5.90;;;18.70;99.90;;;;;;4971897;28;92890;-74
2023/03/18 12:50:22;;;;;;;8.43;6.07;;;18.80;99.90;;;;;;4971455;28;93074;-74
2023/03/18 12:53:02;;;;;;;6.68;5.55;;;18.70;99.90;;;;;;4957028;28;93165;-74
2023/03/18 12:55:39;;;;;;;6.10;5.10;;;18.80;99.90;;;;;;4962725;28;92526;-74
2023/03/18 12:58:23;;;;;;;4.97;3.80;;;18.80;99.90;;;;;;4991271;28;92526;-74